sensor_id;sensor_type;location;lat;lon;timestamp;temperature;humidity
8178;DHT22;4130;48.740;9.132;2023-04-01T00:00:58;7.60;99.90
8178;DHT22;4130;48.740;9.132;2023-04-01T00:03:26;8.10;99.90
8178;DHT22;4130;48.740;9.132;2023-04-01T00:05:55;7.20;99.90
8178;DHT22;4130;48.740;9.132;2023-04-01T00:08:24;8.20;99.90
8178;DHT22;4130;48.740;9.132;2023-04-01T00:10:52;7.30;99.90
8178;DHT22;4130;48.740;9.132;2023-04-01T00:13:19;7.30;99.90
8178;DHT22;4130;48.740;9.132;2023-04-01T00:15:46;7.40;99.90
8178;DHT22;4130;48.740;9.132;2023-04-01T00:18:14;7.60;99.90
8178;DHT22;4130;48.740;9.132;2023-04-01T00:20:44;7.30;99.90
8178;DHT22;4130;48.740;9.132;2023-04-01T00:23:11;7.40;99.90
8178;DHT22;4130;48.740;9.132;2023-04-01T00:25:39;7.30;99.90
8178;DHT22;4130;48.740;9.132;2023-04-01T00:28:06;7.30;99.90
8178;DHT22;4130;48.740;9.132;2023-04-01T00:30:33;7.30;99.90
8178;DHT22;4130;48.740;9.132;2023-04-01T00:32:59;7.20;99.90
8178;DHT22;4130;48.740;9.132;2023-04-01T00:35:26;7.20;99.90
8178;DHT22;4130;48.740;9.132;2023-04-01T00:37:54;7.10;99.90
8178;DHT22;4130;48.740;9.132;2023-04-01T00:40:26;7.20;99.90
8178;DHT22;4130;48.740;9.132;2023-04-01T00:42:54;7.20;99.90
8178;DHT22;4130;48.740;9.132;2023-04-01T00:45:29;7.20;99.90
8178;DHT22;4130;48.740;9.132;2023-04-01T00:47:58;7.30;99.90
8178;DHT22;4130;48.740;9.132;2023-04-01T00:50:26;7.30;99.90
8178;DHT22;4130;48.740;9.132;2023-04-01T00:52:55;7.30;99.90
8178;DHT22;4130;48.740;9.132;2023-04-01T00:55:23;7.40;99.90
8178;DHT22;4130;48.740;9.132;2023-04-01T00:57:54;7.30;99.90
8178;DHT22;4130;48.740;9.132;2023-04-01T01:00:22;7.40;99.90
8178;DHT22;4130;48.740;9.132;2023-04-01T01:02:50;7.40;99.90
8178;DHT22;4130;48.740;9.132;2023-04-01T01:05:18;8.00;99.90
8178;DHT22;4130;48.740;9.132;2023-04-01T01:07:55;7.40;99.90
8178;DHT22;4130;48.740;9.132;2023-04-01T01:10:30;8.20;99.90
8178;DHT22;4130;48.740;9.132;2023-04-01T01:13:05;7.60;99.90
8178;DHT22;4130;48.740;9.132;2023-04-01T01:15:41;7.30;99.90
8178;DHT22;4130;48.740;9.132;2023-04-01T01:18:17;7.70;99.90
8178;DHT22;4130;48.740;9.132;2023-04-01T01:21:11;7.30;99.90
8178;DHT22;4130;48.740;9.132;2023-04-01T01:24:03;7.30;99.90
8178;DHT22;4130;48.740;9.132;2023-04-01T01:26:47;7.30;99.90
8178;DHT22;4130;48.740;9.132;2023-04-01T01:32:17;7.20;99.90
8178;DHT22;4130;48.740;9.132;2023-04-01T01:34:53;7.20;99.90
8178;DHT22;4130;48.740;9.132;2023-04-01T01:37:25;7.30;99.90
8178;DHT22;4130;48.740;9.132;2023-04-01T01:39:55;8.20;99.90
8178;DHT22;4130;48.740;9.132;2023-04-01T01:42:24;7.20;99.90
8178;DHT22;4130;48.740;9.132;2023-04-01T01:44:54;7.30;99.90
8178;DHT22;4130;48.740;9.132;2023-04-01T01:47:22;7.30;99.90
8178;DHT22;4130;48.740;9.132;2023-04-01T01:49:51;8.80;99.90
8178;DHT22;4130;48.740;9.132;2023-04-01T01:52:19;7.40;99.90
8178;DHT22;4130;48.740;9.132;2023-04-01T01:54:48;8.00;99.90
8178;DHT22;4130;48.740;9.132;2023-04-01T01:57:16;7.30;99.90
8178;DHT22;4130;48.740;9.132;2023-04-01T01:59:46;7.90;99.90
8178;DHT22;4130;48.740;9.132;2023-04-01T02:02:15;7.20;99.90
8178;DHT22;4130;48.740;9.132;2023-04-01T02:04:46;7.20;99.90
8178;DHT22;4130;48.740;9.132;2023-04-01T02:07:17;8.10;99.90
8178;DHT22;4130;48.740;9.132;2023-04-01T02:09:45;7.40;99.90
8178;DHT22;4130;48.740;9.132;2023-04-01T02:12:15;8.10;99.90
8178;DHT22;4130;48.740;9.132;2023-04-01T02:14:45;7.90;99.90
8178;DHT22;4130;48.740;9.132;2023-04-01T02:17:16;7.70;99.90
8178;DHT22;4130;48.740;9.132;2023-04-01T02:19:50;7.00;99.90
8178;DHT22;4130;48.740;9.132;2023-04-01T02:22:20;6.90;99.90
8178;DHT22;4130;48.740;9.132;2023-04-01T02:24:49;8.50;99.90
8178;DHT22;4130;48.740;9.132;2023-04-01T02:27:18;7.20;99.90
8178;DHT22;4130;48.740;9.132;2023-04-01T02:29:46;6.90;99.90
8178;DHT22;4130;48.740;9.132;2023-04-01T02:32:13;7.30;99.90
8178;DHT22;4130;48.740;9.132;2023-04-01T02:34:41;6.90;99.90
8178;DHT22;4130;48.740;9.132;2023-04-01T02:37:09;6.90;99.90
8178;DHT22;4130;48.740;9.132;2023-04-01T02:39:37;6.90;99.90
8178;DHT22;4130;48.740;9.132;2023-04-01T02:42:05;6.90;99.90
8178;DHT22;4130;48.740;9.132;2023-04-01T02:44:33;8.50;99.90
8178;DHT22;4130;48.740;9.132;2023-04-01T02:47:00;6.90;99.90
8178;DHT22;4130;48.740;9.132;2023-04-01T02:49:29;6.80;99.90
8178;DHT22;4130;48.740;9.132;2023-04-01T02:52:09;6.70;99.90
8178;DHT22;4130;48.740;9.132;2023-04-01T02:54:36;6.80;99.90
8178;DHT22;4130;48.740;9.132;2023-04-01T02:57:03;6.80;99.90
8178;DHT22;4130;48.740;9.132;2023-04-01T02:59:30;7.80;99.90
8178;DHT22;4130;48.740;9.132;2023-04-01T03:01:58;7.50;99.90
8178;DHT22;4130;48.740;9.132;2023-04-01T03:04:25;6.60;99.90
8178;DHT22;4130;48.740;9.132;2023-04-01T03:06:52;7.00;99.90
8178;DHT22;4130;48.740;9.132;2023-04-01T03:09:18;7.30;99.90
8178;DHT22;4130;48.740;9.132;2023-04-01T03:11:45;7.50;99.90
8178;DHT22;4130;48.740;9.132;2023-04-01T03:14:12;6.70;99.90
8178;DHT22;4130;48.740;9.132;2023-04-01T03:16:39;7.70;99.90
8178;DHT22;4130;48.740;9.132;2023-04-01T03:19:07;6.60;99.90
8178;DHT22;4130;48.740;9.132;2023-04-01T03:21:34;6.60;99.90
8178;DHT22;4130;48.740;9.132;2023-04-01T03:24:01;6.60;99.90
8178;DHT22;4130;48.740;9.132;2023-04-01T03:26:28;6.60;99.90
8178;DHT22;4130;48.740;9.132;2023-04-01T03:28:55;8.00;99.90
8178;DHT22;4130;48.740;9.132;2023-04-01T03:31:22;7.70;99.90
8178;DHT22;4130;48.740;9.132;2023-04-01T03:33:48;6.60;99.90
8178;DHT22;4130;48.740;9.132;2023-04-01T03:36:17;6.80;99.90
8178;DHT22;4130;48.740;9.132;2023-04-01T03:38:44;7.60;99.90
8178;DHT22;4130;48.740;9.132;2023-04-01T03:41:14;7.60;99.90
8178;DHT22;4130;48.740;9.132;2023-04-01T03:43:42;6.60;99.90
8178;DHT22;4130;48.740;9.132;2023-04-01T03:46:09;6.60;99.90
8178;DHT22;4130;48.740;9.132;2023-04-01T03:48:36;6.70;99.90
8178;DHT22;4130;48.740;9.132;2023-04-01T03:51:06;6.90;99.90
8178;DHT22;4130;48.740;9.132;2023-04-01T03:53:35;6.60;99.90
8178;DHT22;4130;48.740;9.132;2023-04-01T03:56:04;7.10;99.90
8178;DHT22;4130;48.740;9.132;2023-04-01T03:58:30;6.50;99.90
8178;DHT22;4130;48.740;9.132;2023-04-01T04:00:57;6.60;99.90
8178;DHT22;4130;48.740;9.132;2023-04-01T04:03:24;6.80;99.90
8178;DHT22;4130;48.740;9.132;2023-04-01T04:05:51;6.30;99.90
8178;DHT22;4130;48.740;9.132;2023-04-01T04:08:18;6.30;99.90
8178;DHT22;4130;48.740;9.132;2023-04-01T04:10:54;6.30;99.90
8178;DHT22;4130;48.740;9.132;2023-04-01T04:13:21;6.20;99.90
8178;DHT22;4130;48.740;9.132;2023-04-01T04:15:48;6.20;99.90
8178;DHT22;4130;48.740;9.132;2023-04-01T04:18:15;5.70;99.90
8178;DHT22;4130;48.740;9.132;2023-04-01T04:20:44;6.80;99.90
8178;DHT22;4130;48.740;9.132;2023-04-01T04:23:12;6.70;99.90
8178;DHT22;4130;48.740;9.132;2023-04-01T04:25:39;6.10;99.90
8178;DHT22;4130;48.740;9.132;2023-04-01T04:28:07;6.10;99.90
8178;DHT22;4130;48.740;9.132;2023-04-01T04:30:34;6.90;99.90
8178;DHT22;4130;48.740;9.132;2023-04-01T04:33:01;7.50;99.90
8178;DHT22;4130;48.740;9.132;2023-04-01T04:35:28;7.00;99.90
8178;DHT22;4130;48.740;9.132;2023-04-01T04:37:54;5.90;99.90
8178;DHT22;4130;48.740;9.132;2023-04-01T04:40:21;6.20;99.90
8178;DHT22;4130;48.740;9.132;2023-04-01T04:42:48;5.90;99.90
8178;DHT22;4130;48.740;9.132;2023-04-01T04:45:16;6.20;99.90
8178;DHT22;4130;48.740;9.132;2023-04-01T04:47:43;5.80;99.90
8178;DHT22;4130;48.740;9.132;2023-04-01T04:50:10;6.00;99.90
8178;DHT22;4130;48.740;9.132;2023-04-01T04:52:38;6.00;99.90
8178;DHT22;4130;48.740;9.132;2023-04-01T04:55:06;6.60;99.90
8178;DHT22;4130;48.740;9.132;2023-04-01T04:57:32;6.00;99.90
8178;DHT22;4130;48.740;9.132;2023-04-01T04:59:59;6.90;99.90
8178;DHT22;4130;48.740;9.132;2023-04-01T05:02:28;6.00;99.90
8178;DHT22;4130;48.740;9.132;2023-04-01T05:04:55;6.10;99.90
8178;DHT22;4130;48.740;9.132;2023-04-01T05:07:22;6.10;99.90
8178;DHT22;4130;48.740;9.132;2023-04-01T05:09:48;6.20;99.90
8178;DHT22;4130;48.740;9.132;2023-04-01T05:12:15;6.30;99.90
8178;DHT22;4130;48.740;9.132;2023-04-01T05:14:42;6.30;99.90
8178;DHT22;4130;48.740;9.132;2023-04-01T05:17:09;6.30;99.90
8178;DHT22;4130;48.740;9.132;2023-04-01T05:19:38;7.00;99.90
8178;DHT22;4130;48.740;9.132;2023-04-01T05:22:05;6.40;99.90
8178;DHT22;4130;48.740;9.132;2023-04-01T05:24:32;7.70;99.90
8178;DHT22;4130;48.740;9.132;2023-04-01T05:26:59;6.50;99.90
8178;DHT22;4130;48.740;9.132;2023-04-01T05:29:27;6.50;99.90
8178;DHT22;4130;48.740;9.132;2023-04-01T05:31:54;6.60;99.90
8178;DHT22;4130;48.740;9.132;2023-04-01T05:34:20;6.60;99.90
8178;DHT22;4130;48.740;9.132;2023-04-01T05:36:49;6.70;99.90
8178;DHT22;4130;48.740;9.132;2023-04-01T05:39:16;6.80;99.90
8178;DHT22;4130;48.740;9.132;2023-04-01T05:41:43;6.80;99.90
8178;DHT22;4130;48.740;9.132;2023-04-01T05:44:15;7.80;99.90
8178;DHT22;4130;48.740;9.132;2023-04-01T05:46:45;8.30;99.90
8178;DHT22;4130;48.740;9.132;2023-04-01T05:49:12;7.10;99.90
8178;DHT22;4130;48.740;9.132;2023-04-01T05:51:39;7.10;99.90
8178;DHT22;4130;48.740;9.132;2023-04-01T05:54:07;7.10;99.90
8178;DHT22;4130;48.740;9.132;2023-04-01T05:56:34;7.10;99.90
8178;DHT22;4130;48.740;9.132;2023-04-01T05:59:01;7.10;99.90
8178;DHT22;4130;48.740;9.132;2023-04-01T06:01:28;7.20;99.90
8178;DHT22;4130;48.740;9.132;2023-04-01T06:03:54;7.20;99.90
8178;DHT22;4130;48.740;9.132;2023-04-01T06:06:25;7.30;99.90
8178;DHT22;4130;48.740;9.132;2023-04-01T06:08:52;7.40;99.90
8178;DHT22;4130;48.740;9.132;2023-04-01T06:11:27;8.00;99.90
8178;DHT22;4130;48.740;9.132;2023-04-01T06:14:15;7.50;99.90
8178;DHT22;4130;48.740;9.132;2023-04-01T06:16:54;7.60;99.90
8178;DHT22;4130;48.740;9.132;2023-04-01T06:19:34;7.70;99.90
8178;DHT22;4130;48.740;9.132;2023-04-01T06:22:34;7.70;99.90
8178;DHT22;4130;48.740;9.132;2023-04-01T06:25:18;7.80;99.90
8178;DHT22;4130;48.740;9.132;2023-04-01T06:30:43;8.00;99.90
8178;DHT22;4130;48.740;9.132;2023-04-01T06:33:20;8.00;99.90
8178;DHT22;4130;48.740;9.132;2023-04-01T06:36:19;8.10;99.90
8178;DHT22;4130;48.740;9.132;2023-04-01T06:39:00;8.20;99.90
8178;DHT22;4130;48.740;9.132;2023-04-01T06:41:50;8.20;99.90
8178;DHT22;4130;48.740;9.132;2023-04-01T06:44:33;8.50;99.90
8178;DHT22;4130;48.740;9.132;2023-04-01T06:47:10;8.60;99.90
8178;DHT22;4130;48.740;9.132;2023-04-01T06:49:48;8.40;99.90
8178;DHT22;4130;48.740;9.132;2023-04-01T06:52:23;8.40;99.90
8178;DHT22;4130;48.740;9.132;2023-04-01T06:54:55;8.70;99.90
8178;DHT22;4130;48.740;9.132;2023-04-01T06:57:31;8.40;99.90
8178;DHT22;4130;48.740;9.132;2023-04-01T07:00:03;8.40;99.90
8178;DHT22;4130;48.740;9.132;2023-04-01T07:02:36;8.40;99.90
8178;DHT22;4130;48.740;9.132;2023-04-01T07:05:06;8.50;99.90
8178;DHT22;4130;48.740;9.132;2023-04-01T07:07:36;8.50;99.90
8178;DHT22;4130;48.740;9.132;2023-04-01T07:10:11;8.90;99.90
8178;DHT22;4130;48.740;9.132;2023-04-01T07:12:44;8.70;99.90
8178;DHT22;4130;48.740;9.132;2023-04-01T07:15:18;8.70;99.90
8178;DHT22;4130;48.740;9.132;2023-04-01T07:17:48;8.80;99.90
8178;DHT22;4130;48.740;9.132;2023-04-01T07:20:20;9.30;99.90
8178;DHT22;4130;48.740;9.132;2023-04-01T07:22:51;8.70;99.90
8178;DHT22;4130;48.740;9.132;2023-04-01T07:25:22;8.80;99.90
8178;DHT22;4130;48.740;9.132;2023-04-01T07:27:52;9.70;99.90
8178;DHT22;4130;48.740;9.132;2023-04-01T07:30:22;8.70;99.90
8178;DHT22;4130;48.740;9.132;2023-04-01T07:32:54;8.70;99.90
8178;DHT22;4130;48.740;9.132;2023-04-01T07:35:26;8.60;99.90
8178;DHT22;4130;48.740;9.132;2023-04-01T07:38:09;8.70;99.90
8178;DHT22;4130;48.740;9.132;2023-04-01T07:40:57;8.70;99.90
8178;DHT22;4130;48.740;9.132;2023-04-01T07:43:45;8.70;99.90
8178;DHT22;4130;48.740;9.132;2023-04-01T07:46:30;8.80;99.90
8178;DHT22;4130;48.740;9.132;2023-04-01T07:49:06;8.90;99.90
8178;DHT22;4130;48.740;9.132;2023-04-01T07:51:38;9.90;99.90
8178;DHT22;4130;48.740;9.132;2023-04-01T07:54:11;9.50;99.90
8178;DHT22;4130;48.740;9.132;2023-04-01T07:56:42;9.20;99.90
8178;DHT22;4130;48.740;9.132;2023-04-01T07:59:25;9.10;99.90
8178;DHT22;4130;48.740;9.132;2023-04-01T08:02:00;9.60;99.90
8178;DHT22;4130;48.740;9.132;2023-04-01T08:04:39;9.30;99.90
8178;DHT22;4130;48.740;9.132;2023-04-01T08:07:11;9.50;99.90
8178;DHT22;4130;48.740;9.132;2023-04-01T08:09:46;10.40;99.90
8178;DHT22;4130;48.740;9.132;2023-04-01T08:12:23;9.60;99.90
8178;DHT22;4130;48.740;9.132;2023-04-01T08:15:04;9.50;99.90
8178;DHT22;4130;48.740;9.132;2023-04-01T08:17:43;9.50;99.90
8178;DHT22;4130;48.740;9.132;2023-04-01T08:20:19;9.40;99.90
8178;DHT22;4130;48.740;9.132;2023-04-01T08:22:50;9.30;99.90
8178;DHT22;4130;48.740;9.132;2023-04-01T08:25:20;9.20;99.90
8178;DHT22;4130;48.740;9.132;2023-04-01T08:27:52;9.20;99.90
8178;DHT22;4130;48.740;9.132;2023-04-01T08:30:30;9.80;99.90
8178;DHT22;4130;48.740;9.132;2023-04-01T08:33:09;9.30;99.90
8178;DHT22;4130;48.740;9.132;2023-04-01T08:35:39;9.40;99.90
8178;DHT22;4130;48.740;9.132;2023-04-01T08:38:12;9.30;99.90
8178;DHT22;4130;48.740;9.132;2023-04-01T08:40:57;9.20;99.90
8178;DHT22;4130;48.740;9.132;2023-04-01T08:47:09;8.80;99.90
8178;DHT22;4130;48.740;9.132;2023-04-01T08:49:56;8.50;99.90
8178;DHT22;4130;48.740;9.132;2023-04-01T08:52:34;8.20;99.90
8178;DHT22;4130;48.740;9.132;2023-04-01T08:55:15;8.10;99.90
8178;DHT22;4130;48.740;9.132;2023-04-01T08:57:53;7.90;99.90
8178;DHT22;4130;48.740;9.132;2023-04-01T09:00:30;8.40;99.90
8178;DHT22;4130;48.740;9.132;2023-04-01T09:03:19;7.40;99.90
8178;DHT22;4130;48.740;9.132;2023-04-01T09:09:06;7.90;99.90
8178;DHT22;4130;48.740;9.132;2023-04-01T09:11:50;8.00;99.90
8178;DHT22;4130;48.740;9.132;2023-04-01T09:14:30;8.20;99.90
8178;DHT22;4130;48.740;9.132;2023-04-01T09:17:30;8.50;99.90
8178;DHT22;4130;48.740;9.132;2023-04-01T09:20:20;8.60;99.90
8178;DHT22;4130;48.740;9.132;2023-04-01T09:23:10;8.70;99.90
8178;DHT22;4130;48.740;9.132;2023-04-01T09:25:47;8.90;99.90
8178;DHT22;4130;48.740;9.132;2023-04-01T09:28:19;9.90;99.90
8178;DHT22;4130;48.740;9.132;2023-04-01T09:34:15;9.20;99.90
8178;DHT22;4130;48.740;9.132;2023-04-01T09:36:47;9.50;99.90
8178;DHT22;4130;48.740;9.132;2023-04-01T09:39:34;9.60;99.90
8178;DHT22;4130;48.740;9.132;2023-04-01T09:42:24;9.40;99.90
8178;DHT22;4130;48.740;9.132;2023-04-01T09:44:58;9.50;99.90
8178;DHT22;4130;48.740;9.132;2023-04-01T09:47:48;9.10;99.90
8178;DHT22;4130;48.740;9.132;2023-04-01T09:50:32;9.00;99.90
8178;DHT22;4130;48.740;9.132;2023-04-01T09:53:11;9.10;99.90
8178;DHT22;4130;48.740;9.132;2023-04-01T09:56:08;9.10;99.90
8178;DHT22;4130;48.740;9.132;2023-04-01T09:59:01;9.10;99.90
8178;DHT22;4130;48.740;9.132;2023-04-01T10:01:42;9.10;99.90
8178;DHT22;4130;48.740;9.132;2023-04-01T10:04:49;9.20;99.90
8178;DHT22;4130;48.740;9.132;2023-04-01T10:07:46;9.20;99.90
8178;DHT22;4130;48.740;9.132;2023-04-01T10:10:38;9.30;99.90
8178;DHT22;4130;48.740;9.132;2023-04-01T10:16:49;9.30;99.90
8178;DHT22;4130;48.740;9.132;2023-04-01T10:22:54;9.60;99.90
8178;DHT22;4130;48.740;9.132;2023-04-01T10:37:57;10.90;99.90
8178;DHT22;4130;48.740;9.132;2023-04-01T10:40:46;11.20;99.90
8178;DHT22;4130;48.740;9.132;2023-04-01T10:43:59;11.40;99.90
8178;DHT22;4130;48.740;9.132;2023-04-01T10:47:13;11.50;99.90
8178;DHT22;4130;48.740;9.132;2023-04-01T10:53:16;11.30;99.90
8178;DHT22;4130;48.740;9.132;2023-04-01T10:56:23;11.50;99.90
8178;DHT22;4130;48.740;9.132;2023-04-01T11:05:42;10.80;99.90
8178;DHT22;4130;48.740;9.132;2023-04-01T11:12:01;10.70;99.90
8178;DHT22;4130;48.740;9.132;2023-04-01T11:18:10;10.90;99.90
8178;DHT22;4130;48.740;9.132;2023-04-01T11:23:50;10.90;99.90
8178;DHT22;4130;48.740;9.132;2023-04-01T11:26:29;11.00;99.90
8178;DHT22;4130;48.740;9.132;2023-04-01T11:29:31;11.20;99.90
8178;DHT22;4130;48.740;9.132;2023-04-01T11:32:11;11.30;99.90
8178;DHT22;4130;48.740;9.132;2023-04-01T11:34:56;11.20;99.90
8178;DHT22;4130;48.740;9.132;2023-04-01T11:37:37;11.70;99.90
8178;DHT22;4130;48.740;9.132;2023-04-01T11:40:12;11.20;99.90
8178;DHT22;4130;48.740;9.132;2023-04-01T11:42:45;11.10;99.90
8178;DHT22;4130;48.740;9.132;2023-04-01T11:45:22;11.10;99.90
8178;DHT22;4130;48.740;9.132;2023-04-01T11:48:35;11.00;99.90
8178;DHT22;4130;48.740;9.132;2023-04-01T11:51:25;11.10;99.90
8178;DHT22;4130;48.740;9.132;2023-04-01T11:54:03;11.30;99.90
8178;DHT22;4130;48.740;9.132;2023-04-01T11:56:44;11.40;99.90
8178;DHT22;4130;48.740;9.132;2023-04-01T12:02:25;10.80;99.90
8178;DHT22;4130;48.740;9.132;2023-04-01T12:05:13;10.70;99.90
8178;DHT22;4130;48.740;9.132;2023-04-01T12:08:01;10.80;99.90
8178;DHT22;4130;48.740;9.132;2023-04-01T12:10:39;10.80;99.90
8178;DHT22;4130;48.740;9.132;2023-04-01T12:13:15;10.90;99.90
8178;DHT22;4130;48.740;9.132;2023-04-01T12:15:58;11.10;99.90
8178;DHT22;4130;48.740;9.132;2023-04-01T12:18:33;11.60;99.90
8178;DHT22;4130;48.740;9.132;2023-04-01T12:21:09;10.80;99.90
8178;DHT22;4130;48.740;9.132;2023-04-01T12:26:40;10.70;99.90
8178;DHT22;4130;48.740;9.132;2023-04-01T12:29:28;11.30;99.90
8178;DHT22;4130;48.740;9.132;2023-04-01T12:32:09;10.60;99.90
8178;DHT22;4130;48.740;9.132;2023-04-01T12:34:58;10.60;99.90
8178;DHT22;4130;48.740;9.132;2023-04-01T12:37:36;10.70;99.90
8178;DHT22;4130;48.740;9.132;2023-04-01T12:40:24;10.80;99.90
8178;DHT22;4130;48.740;9.132;2023-04-01T12:43:07;11.00;99.90
8178;DHT22;4130;48.740;9.132;2023-04-01T12:45:43;11.20;99.90
8178;DHT22;4130;48.740;9.132;2023-04-01T12:48:35;11.60;99.90
8178;DHT22;4130;48.740;9.132;2023-04-01T12:51:33;11.90;99.90
8178;DHT22;4130;48.740;9.132;2023-04-01T12:54:38;11.90;99.90
8178;DHT22;4130;48.740;9.132;2023-04-01T12:57:23;11.70;99.90
8178;DHT22;4130;48.740;9.132;2023-04-01T13:00:09;12.00;99.90
8178;DHT22;4130;48.740;9.132;2023-04-01T13:02:49;12.20;99.90
8178;DHT22;4130;48.740;9.132;2023-04-01T13:05:42;12.20;99.90
8178;DHT22;4130;48.740;9.132;2023-04-01T13:08:33;12.00;99.90
8178;DHT22;4130;48.740;9.132;2023-04-01T13:11:09;11.80;99.90
8178;DHT22;4130;48.740;9.132;2023-04-01T13:14:08;11.80;99.90
8178;DHT22;4130;48.740;9.132;2023-04-01T13:16:39;11.60;99.90
8178;DHT22;4130;48.740;9.132;2023-04-01T13:19:13;11.50;99.90
8178;DHT22;4130;48.740;9.132;2023-04-01T13:21:54;11.20;99.90
8178;DHT22;4130;48.740;9.132;2023-04-01T13:24:35;11.90;99.90
8178;DHT22;4130;48.740;9.132;2023-04-01T13:27:11;11.10;99.90
8178;DHT22;4130;48.740;9.132;2023-04-01T13:29:45;11.30;99.90
8178;DHT22;4130;48.740;9.132;2023-04-01T13:32:25;11.10;99.90
8178;DHT22;4130;48.740;9.132;2023-04-01T13:35:15;11.40;99.90
8178;DHT22;4130;48.740;9.132;2023-04-01T13:37:54;11.30;99.90
8178;DHT22;4130;48.740;9.132;2023-04-01T13:40:33;11.40;99.90
8178;DHT22;4130;48.740;9.132;2023-04-01T13:43:11;11.80;99.90
8178;DHT22;4130;48.740;9.132;2023-04-01T13:45:55;11.10;99.90
8178;DHT22;4130;48.740;9.132;2023-04-01T13:48:32;11.00;99.90
8178;DHT22;4130;48.740;9.132;2023-04-01T13:51:16;11.10;99.90
8178;DHT22;4130;48.740;9.132;2023-04-01T13:57:06;11.20;99.90
8178;DHT22;4130;48.740;9.132;2023-04-01T14:06:05;11.40;99.90
8178;DHT22;4130;48.740;9.132;2023-04-01T14:09:03;11.40;99.90
8178;DHT22;4130;48.740;9.132;2023-04-01T14:11:36;11.30;99.90
8178;DHT22;4130;48.740;9.132;2023-04-01T14:14:17;11.20;99.90
8178;DHT22;4130;48.740;9.132;2023-04-01T14:17:05;11.50;99.90
8178;DHT22;4130;48.740;9.132;2023-04-01T14:20:22;11.00;99.90
8178;DHT22;4130;48.740;9.132;2023-04-01T14:28:56;10.80;99.90
8178;DHT22;4130;48.740;9.132;2023-04-01T14:31:44;10.80;99.90
8178;DHT22;4130;48.740;9.132;2023-04-01T14:34:25;10.80;99.90
8178;DHT22;4130;48.740;9.132;2023-04-01T14:37:33;10.80;99.90
8178;DHT22;4130;48.740;9.132;2023-04-01T14:40:22;10.80;99.90
8178;DHT22;4130;48.740;9.132;2023-04-01T14:43:04;10.80;99.90
8178;DHT22;4130;48.740;9.132;2023-04-01T14:45:46;10.80;99.90
8178;DHT22;4130;48.740;9.132;2023-04-01T14:48:25;11.10;99.90
8178;DHT22;4130;48.740;9.132;2023-04-01T14:50:57;10.80;99.90
8178;DHT22;4130;48.740;9.132;2023-04-01T14:53:31;10.80;99.90
8178;DHT22;4130;48.740;9.132;2023-04-01T14:56:01;11.00;99.90
8178;DHT22;4130;48.740;9.132;2023-04-01T14:58:41;11.00;99.90
8178;DHT22;4130;48.740;9.132;2023-04-01T15:01:23;11.20;99.90
8178;DHT22;4130;48.740;9.132;2023-04-01T15:04:00;11.10;99.90
8178;DHT22;4130;48.740;9.132;2023-04-01T15:06:48;11.00;99.90
8178;DHT22;4130;48.740;9.132;2023-04-01T15:09:28;11.10;99.90
8178;DHT22;4130;48.740;9.132;2023-04-01T15:12:07;11.00;99.90
8178;DHT22;4130;48.740;9.132;2023-04-01T15:17:43;10.70;99.90
8178;DHT22;4130;48.740;9.132;2023-04-01T15:20:29;10.70;99.90
8178;DHT22;4130;48.740;9.132;2023-04-01T15:23:09;10.70;99.90
8178;DHT22;4130;48.740;9.132;2023-04-01T15:25:50;10.70;99.90
8178;DHT22;4130;48.740;9.132;2023-04-01T15:28:24;10.70;99.90
8178;DHT22;4130;48.740;9.132;2023-04-01T15:30:57;10.70;99.90
8178;DHT22;4130;48.740;9.132;2023-04-01T15:33:49;10.80;99.90
8178;DHT22;4130;48.740;9.132;2023-04-01T15:36:29;10.90;99.90
8178;DHT22;4130;48.740;9.132;2023-04-01T15:39:05;10.90;99.90
8178;DHT22;4130;48.740;9.132;2023-04-01T15:41:43;10.80;99.90
8178;DHT22;4130;48.740;9.132;2023-04-01T15:44:48;10.80;99.90
8178;DHT22;4130;48.740;9.132;2023-04-01T15:47:33;10.70;99.90
8178;DHT22;4130;48.740;9.132;2023-04-01T15:50:19;10.70;99.90
8178;DHT22;4130;48.740;9.132;2023-04-01T15:52:59;10.80;99.90
8178;DHT22;4130;48.740;9.132;2023-04-01T15:55:31;10.80;99.90
8178;DHT22;4130;48.740;9.132;2023-04-01T16:01:10;10.60;99.90
8178;DHT22;4130;48.740;9.132;2023-04-01T16:03:49;10.50;99.90
8178;DHT22;4130;48.740;9.132;2023-04-01T16:06:35;10.50;99.90
8178;DHT22;4130;48.740;9.132;2023-04-01T16:09:34;10.40;99.90
8178;DHT22;4130;48.740;9.132;2023-04-01T16:12:09;10.40;99.90
8178;DHT22;4130;48.740;9.132;2023-04-01T16:14:47;11.40;99.90
8178;DHT22;4130;48.740;9.132;2023-04-01T16:17:31;10.40;99.90
8178;DHT22;4130;48.740;9.132;2023-04-01T16:20:06;10.10;99.90
8178;DHT22;4130;48.740;9.132;2023-04-01T16:22:42;11.20;99.90
8178;DHT22;4130;48.740;9.132;2023-04-01T16:25:30;10.20;99.90
8178;DHT22;4130;48.740;9.132;2023-04-01T16:28:09;10.10;99.90
8178;DHT22;4130;48.740;9.132;2023-04-01T16:30:45;10.10;99.90
8178;DHT22;4130;48.740;9.132;2023-04-01T16:33:22;10.10;99.90
8178;DHT22;4130;48.740;9.132;2023-04-01T16:35:58;10.20;99.90
8178;DHT22;4130;48.740;9.132;2023-04-01T16:38:33;10.70;99.90
8178;DHT22;4130;48.740;9.132;2023-04-01T16:41:11;10.30;99.90
8178;DHT22;4130;48.740;9.132;2023-04-01T16:43:43;10.10;99.90
8178;DHT22;4130;48.740;9.132;2023-04-01T16:46:33;10.30;99.90
8178;DHT22;4130;48.740;9.132;2023-04-01T16:49:13;10.10;99.90
8178;DHT22;4130;48.740;9.132;2023-04-01T16:51:46;10.10;99.90
8178;DHT22;4130;48.740;9.132;2023-04-01T16:54:25;10.10;99.90
8178;DHT22;4130;48.740;9.132;2023-04-01T16:57:01;10.30;99.90
8178;DHT22;4130;48.740;9.132;2023-04-01T16:59:34;10.10;99.90
8178;DHT22;4130;48.740;9.132;2023-04-01T17:02:08;10.10;99.90
8178;DHT22;4130;48.740;9.132;2023-04-01T17:04:40;10.60;99.90
8178;DHT22;4130;48.740;9.132;2023-04-01T17:07:21;10.00;99.90
8178;DHT22;4130;48.740;9.132;2023-04-01T17:10:04;10.00;99.90
8178;DHT22;4130;48.740;9.132;2023-04-01T17:12:38;10.00;99.90
8178;DHT22;4130;48.740;9.132;2023-04-01T17:15:15;9.90;99.90
8178;DHT22;4130;48.740;9.132;2023-04-01T17:17:49;9.90;99.90
8178;DHT22;4130;48.740;9.132;2023-04-01T17:20:42;9.90;99.90
8178;DHT22;4130;48.740;9.132;2023-04-01T17:23:18;9.80;99.90
8178;DHT22;4130;48.740;9.132;2023-04-01T17:25:56;9.70;99.90
8178;DHT22;4130;48.740;9.132;2023-04-01T17:28:36;10.00;99.90
8178;DHT22;4130;48.740;9.132;2023-04-01T17:31:16;9.70;99.90
8178;DHT22;4130;48.740;9.132;2023-04-01T17:36:40;9.60;99.90
8178;DHT22;4130;48.740;9.132;2023-04-01T17:39:33;10.00;99.90
8178;DHT22;4130;48.740;9.132;2023-04-01T17:42:07;9.40;99.90
8178;DHT22;4130;48.740;9.132;2023-04-01T17:44:48;9.50;99.90
8178;DHT22;4130;48.740;9.132;2023-04-01T17:50:27;9.50;99.90
8178;DHT22;4130;48.740;9.132;2023-04-01T17:53:07;9.50;99.90
8178;DHT22;4130;48.740;9.132;2023-04-01T17:55:45;9.50;99.90
8178;DHT22;4130;48.740;9.132;2023-04-01T17:58:19;9.50;99.90
8178;DHT22;4130;48.740;9.132;2023-04-01T18:01:07;9.40;99.90
8178;DHT22;4130;48.740;9.132;2023-04-01T18:06:56;9.30;99.90
8178;DHT22;4130;48.740;9.132;2023-04-01T18:09:34;9.20;99.90
8178;DHT22;4130;48.740;9.132;2023-04-01T18:12:14;9.00;99.90
8178;DHT22;4130;48.740;9.132;2023-04-01T18:14:53;8.90;99.90
8178;DHT22;4130;48.740;9.132;2023-04-01T18:17:27;9.30;99.90
8178;DHT22;4130;48.740;9.132;2023-04-01T18:20:14;9.90;99.90
8178;DHT22;4130;48.740;9.132;2023-04-01T18:22:47;8.50;99.90
8178;DHT22;4130;48.740;9.132;2023-04-01T18:25:19;8.40;99.90
8178;DHT22;4130;48.740;9.132;2023-04-01T18:27:51;8.40;99.90
8178;DHT22;4130;48.740;9.132;2023-04-01T18:30:25;9.50;99.90
8178;DHT22;4130;48.740;9.132;2023-04-01T18:32:59;8.20;99.90
8178;DHT22;4130;48.740;9.132;2023-04-01T18:35:32;8.60;99.90
8178;DHT22;4130;48.740;9.132;2023-04-01T18:38:10;8.30;99.90
8178;DHT22;4130;48.740;9.132;2023-04-01T18:40:42;8.30;99.90
8178;DHT22;4130;48.740;9.132;2023-04-01T18:43:16;8.80;99.90